sensor_id;sensor_type;location;lat;lon;timestamp;P1;durP1;ratioP1;P2;durP2;ratioP2
28625;SDS011;18905;42.668;23.364;2022-10-16T00:01:05;21.63;;;13.75;;
28625;SDS011;18905;42.668;23.364;2022-10-16T00:03:31;26.85;;;14.30;;
28625;SDS011;18905;42.668;23.364;2022-10-16T00:05:58;25.42;;;14.18;;
28625;SDS011;18905;42.668;23.364;2022-10-16T00:08:25;25.75;;;13.68;;
28625;SDS011;18905;42.668;23.364;2022-10-16T00:10:50;29.70;;;15.30;;
28625;SDS011;18905;42.668;23.364;2022-10-16T00:13:16;25.98;;;14.45;;
28625;SDS011;18905;42.668;23.364;2022-10-16T00:15:43;25.88;;;15.38;;
28625;SDS011;18905;42.668;23.364;2022-10-16T00:18:09;30.50;;;15.80;;
28625;SDS011;18905;42.668;23.364;2022-10-16T00:20:35;27.80;;;13.77;;
28625;SDS011;18905;42.668;23.364;2022-10-16T00:23:02;28.13;;;15.18;;
28625;SDS011;18905;42.668;23.364;2022-10-16T00:25:28;25.77;;;15.65;;
28625;SDS011;18905;42.668;23.364;2022-10-16T00:27:54;26.17;;;14.50;;
28625;SDS011;18905;42.668;23.364;2022-10-16T00:30:19;25.58;;;13.50;;
28625;SDS011;18905;42.668;23.364;2022-10-16T00:32:45;21.00;;;13.52;;
28625;SDS011;18905;42.668;23.364;2022-10-16T00:35:10;29.42;;;14.35;;
28625;SDS011;18905;42.668;23.364;2022-10-16T00:37:36;24.92;;;13.90;;
28625;SDS011;18905;42.668;23.364;2022-10-16T00:40:01;23.25;;;13.27;;
28625;SDS011;18905;42.668;23.364;2022-10-16T00:42:26;24.45;;;13.30;;
28625;SDS011;18905;42.668;23.364;2022-10-16T00:44:53;23.50;;;13.32;;
28625;SDS011;18905;42.668;23.364;2022-10-16T00:49:51;24.08;;;14.00;;
28625;SDS011;18905;42.668;23.364;2022-10-16T00:52:21;20.70;;;12.50;;
28625;SDS011;18905;42.668;23.364;2022-10-16T00:54:46;21.33;;;12.77;;
28625;SDS011;18905;42.668;23.364;2022-10-16T00:57:14;22.65;;;13.05;;
28625;SDS011;18905;42.668;23.364;2022-10-16T00:59:40;23.35;;;13.10;;
28625;SDS011;18905;42.668;23.364;2022-10-16T01:02:08;26.77;;;13.65;;
28625;SDS011;18905;42.668;23.364;2022-10-16T01:04:39;24.30;;;13.07;;
28625;SDS011;18905;42.668;23.364;2022-10-16T01:10:21;22.92;;;14.07;;
28625;SDS011;18905;42.668;23.364;2022-10-16T01:18:19;21.77;;;12.57;;
28625;SDS011;18905;42.668;23.364;2022-10-16T01:20:54;24.23;;;12.50;;
28625;SDS011;18905;42.668;23.364;2022-10-16T01:31:34;25.90;;;13.45;;
28625;SDS011;18905;42.668;23.364;2022-10-16T01:34:13;23.30;;;12.77;;
28625;SDS011;18905;42.668;23.364;2022-10-16T01:36:47;21.67;;;12.25;;
28625;SDS011;18905;42.668;23.364;2022-10-16T01:39:18;20.37;;;11.73;;
28625;SDS011;18905;42.668;23.364;2022-10-16T01:44:32;21.92;;;12.82;;
28625;SDS011;18905;42.668;23.364;2022-10-16T01:47:01;22.85;;;12.02;;
28625;SDS011;18905;42.668;23.364;2022-10-16T01:49:28;29.20;;;13.07;;
28625;SDS011;18905;42.668;23.364;2022-10-16T01:51:58;19.77;;;12.32;;
28625;SDS011;18905;42.668;23.364;2022-10-16T01:54:27;18.10;;;11.93;;
28625;SDS011;18905;42.668;23.364;2022-10-16T01:56:55;20.35;;;11.80;;
28625;SDS011;18905;42.668;23.364;2022-10-16T01:59:23;16.67;;;11.93;;
28625;SDS011;18905;42.668;23.364;2022-10-16T02:01:52;21.55;;;11.65;;
28625;SDS011;18905;42.668;23.364;2022-10-16T02:04:26;24.80;;;12.07;;
28625;SDS011;18905;42.668;23.364;2022-10-16T02:06:56;19.65;;;12.40;;
28625;SDS011;18905;42.668;23.364;2022-10-16T02:09:22;25.25;;;12.57;;
28625;SDS011;18905;42.668;23.364;2022-10-16T02:11:47;22.38;;;12.40;;
28625;SDS011;18905;42.668;23.364;2022-10-16T02:14:16;21.73;;;12.85;;
28625;SDS011;18905;42.668;23.364;2022-10-16T02:16:45;24.20;;;12.13;;
28625;SDS011;18905;42.668;23.364;2022-10-16T02:19:14;20.05;;;10.93;;
28625;SDS011;18905;42.668;23.364;2022-10-16T02:21:46;21.30;;;12.15;;
28625;SDS011;18905;42.668;23.364;2022-10-16T02:24:15;18.27;;;10.48;;
28625;SDS011;18905;42.668;23.364;2022-10-16T02:26:56;20.20;;;10.57;;
28625;SDS011;18905;42.668;23.364;2022-10-16T02:29:26;16.30;;;10.38;;
28625;SDS011;18905;42.668;23.364;2022-10-16T02:32:10;17.92;;;10.93;;
28625;SDS011;18905;42.668;23.364;2022-10-16T02:34:37;15.95;;;10.40;;
28625;SDS011;18905;42.668;23.364;2022-10-16T02:37:05;20.85;;;10.65;;
28625;SDS011;18905;42.668;23.364;2022-10-16T02:39:32;21.90;;;11.00;;
28625;SDS011;18905;42.668;23.364;2022-10-16T02:41:59;19.52;;;10.52;;
28625;SDS011;18905;42.668;23.364;2022-10-16T02:44:24;19.73;;;10.93;;
28625;SDS011;18905;42.668;23.364;2022-10-16T02:46:50;19.67;;;11.55;;
28625;SDS011;18905;42.668;23.364;2022-10-16T02:49:15;23.05;;;11.02;;
28625;SDS011;18905;42.668;23.364;2022-10-16T02:51:41;22.20;;;10.93;;
28625;SDS011;18905;42.668;23.364;2022-10-16T02:54:06;26.02;;;12.10;;
28625;SDS011;18905;42.668;23.364;2022-10-16T02:56:32;23.15;;;12.27;;
28625;SDS011;18905;42.668;23.364;2022-10-16T02:58:57;19.63;;;12.10;;
28625;SDS011;18905;42.668;23.364;2022-10-16T03:01:23;24.17;;;11.85;;
28625;SDS011;18905;42.668;23.364;2022-10-16T03:03:48;20.98;;;11.05;;
28625;SDS011;18905;42.668;23.364;2022-10-16T03:06:14;22.77;;;11.02;;
28625;SDS011;18905;42.668;23.364;2022-10-16T03:08:40;17.60;;;11.00;;
28625;SDS011;18905;42.668;23.364;2022-10-16T03:11:05;16.75;;;9.80;;
28625;SDS011;18905;42.668;23.364;2022-10-16T03:13:31;15.63;;;9.25;;
28625;SDS011;18905;42.668;23.364;2022-10-16T03:15:56;16.92;;;9.68;;
28625;SDS011;18905;42.668;23.364;2022-10-16T03:18:21;15.63;;;9.23;;
28625;SDS011;18905;42.668;23.364;2022-10-16T03:20:47;11.18;;;7.57;;
28625;SDS011;18905;42.668;23.364;2022-10-16T03:23:12;14.98;;;7.78;;
28625;SDS011;18905;42.668;23.364;2022-10-16T03:25:38;13.77;;;8.23;;
28625;SDS011;18905;42.668;23.364;2022-10-16T03:28:03;14.43;;;7.53;;
28625;SDS011;18905;42.668;23.364;2022-10-16T03:30:29;12.00;;;7.85;;
28625;SDS011;18905;42.668;23.364;2022-10-16T03:32:54;14.82;;;8.82;;
28625;SDS011;18905;42.668;23.364;2022-10-16T03:35:20;12.07;;;8.30;;
28625;SDS011;18905;42.668;23.364;2022-10-16T03:37:47;12.05;;;7.50;;
28625;SDS011;18905;42.668;23.364;2022-10-16T03:40:12;11.30;;;8.07;;
28625;SDS011;18905;42.668;23.364;2022-10-16T03:42:38;12.05;;;8.50;;
28625;SDS011;18905;42.668;23.364;2022-10-16T03:45:04;12.00;;;7.47;;
28625;SDS011;18905;42.668;23.364;2022-10-16T03:47:30;15.27;;;8.30;;
28625;SDS011;18905;42.668;23.364;2022-10-16T03:49:57;16.25;;;8.18;;
28625;SDS011;18905;42.668;23.364;2022-10-16T03:52:23;16.58;;;9.15;;
28625;SDS011;18905;42.668;23.364;2022-10-16T03:54:49;14.98;;;9.10;;
28625;SDS011;18905;42.668;23.364;2022-10-16T03:57:14;13.65;;;9.98;;
28625;SDS011;18905;42.668;23.364;2022-10-16T03:59:39;13.48;;;8.65;;
28625;SDS011;18905;42.668;23.364;2022-10-16T04:02:05;14.63;;;9.00;;
28625;SDS011;18905;42.668;23.364;2022-10-16T04:04:30;24.38;;;11.43;;
28625;SDS011;18905;42.668;23.364;2022-10-16T04:06:56;18.05;;;10.18;;
28625;SDS011;18905;42.668;23.364;2022-10-16T04:09:21;20.17;;;9.63;;
28625;SDS011;18905;42.668;23.364;2022-10-16T04:11:46;22.45;;;10.38;;
28625;SDS011;18905;42.668;23.364;2022-10-16T04:14:12;23.48;;;11.48;;
28625;SDS011;18905;42.668;23.364;2022-10-16T04:16:37;21.90;;;10.90;;
28625;SDS011;18905;42.668;23.364;2022-10-16T04:19:03;20.73;;;9.93;;
28625;SDS011;18905;42.668;23.364;2022-10-16T04:21:28;22.92;;;11.25;;
28625;SDS011;18905;42.668;23.364;2022-10-16T04:23:54;15.48;;;8.93;;
28625;SDS011;18905;42.668;23.364;2022-10-16T04:26:20;21.55;;;12.32;;
28625;SDS011;18905;42.668;23.364;2022-10-16T04:28:45;20.58;;;11.10;;
28625;SDS011;18905;42.668;23.364;2022-10-16T04:31:11;21.15;;;11.82;;
28625;SDS011;18905;42.668;23.364;2022-10-16T04:33:36;21.45;;;10.57;;
28625;SDS011;18905;42.668;23.364;2022-10-16T04:36:02;19.05;;;9.88;;
28625;SDS011;18905;42.668;23.364;2022-10-16T04:38:28;21.73;;;11.95;;
28625;SDS011;18905;42.668;23.364;2022-10-16T04:40:54;19.58;;;11.25;;
28625;SDS011;18905;42.668;23.364;2022-10-16T04:43:20;15.85;;;10.65;;
28625;SDS011;18905;42.668;23.364;2022-10-16T04:45:46;20.50;;;10.98;;
28625;SDS011;18905;42.668;23.364;2022-10-16T04:48:12;15.50;;;9.05;;
28625;SDS011;18905;42.668;23.364;2022-10-16T04:50:37;17.30;;;10.20;;
28625;SDS011;18905;42.668;23.364;2022-10-16T04:53:02;18.65;;;10.65;;
28625;SDS011;18905;42.668;23.364;2022-10-16T04:55:28;26.48;;;10.52;;
28625;SDS011;18905;42.668;23.364;2022-10-16T04:57:53;19.38;;;11.70;;
28625;SDS011;18905;42.668;23.364;2022-10-16T05:00:18;29.60;;;11.07;;
28625;SDS011;18905;42.668;23.364;2022-10-16T05:02:44;20.55;;;10.55;;
28625;SDS011;18905;42.668;23.364;2022-10-16T05:05:09;20.52;;;10.93;;
28625;SDS011;18905;42.668;23.364;2022-10-16T05:07:35;19.75;;;10.98;;
28625;SDS011;18905;42.668;23.364;2022-10-16T05:10:00;20.60;;;10.10;;
28625;SDS011;18905;42.668;23.364;2022-10-16T05:12:26;18.13;;;10.38;;
28625;SDS011;18905;42.668;23.364;2022-10-16T05:14:51;18.88;;;11.05;;
28625;SDS011;18905;42.668;23.364;2022-10-16T05:17:17;18.42;;;9.77;;
28625;SDS011;18905;42.668;23.364;2022-10-16T05:19:42;19.52;;;10.07;;
28625;SDS011;18905;42.668;23.364;2022-10-16T05:22:08;23.88;;;10.90;;
28625;SDS011;18905;42.668;23.364;2022-10-16T05:24:33;20.88;;;11.48;;
28625;SDS011;18905;42.668;23.364;2022-10-16T05:26:59;19.55;;;11.48;;
28625;SDS011;18905;42.668;23.364;2022-10-16T05:29:24;25.88;;;13.48;;
28625;SDS011;18905;42.668;23.364;2022-10-16T05:31:50;29.27;;;15.32;;
28625;SDS011;18905;42.668;23.364;2022-10-16T05:34:17;34.38;;;17.35;;
28625;SDS011;18905;42.668;23.364;2022-10-16T05:36:42;30.60;;;18.77;;
28625;SDS011;18905;42.668;23.364;2022-10-16T05:39:10;31.70;;;16.58;;
28625;SDS011;18905;42.668;23.364;2022-10-16T05:41:35;31.75;;;16.52;;
28625;SDS011;18905;42.668;23.364;2022-10-16T05:44:03;32.42;;;17.20;;
28625;SDS011;18905;42.668;23.364;2022-10-16T05:46:29;26.10;;;16.52;;
28625;SDS011;18905;42.668;23.364;2022-10-16T05:48:55;31.92;;;16.30;;
28625;SDS011;18905;42.668;23.364;2022-10-16T05:51:20;27.42;;;16.70;;
28625;SDS011;18905;42.668;23.364;2022-10-16T05:53:45;29.92;;;16.55;;
28625;SDS011;18905;42.668;23.364;2022-10-16T05:56:11;28.77;;;13.50;;
28625;SDS011;18905;42.668;23.364;2022-10-16T05:58:39;25.42;;;13.32;;
28625;SDS011;18905;42.668;23.364;2022-10-16T06:01:10;19.75;;;12.15;;
28625;SDS011;18905;42.668;23.364;2022-10-16T06:03:37;21.25;;;10.48;;
28625;SDS011;18905;42.668;23.364;2022-10-16T06:06:22;21.73;;;10.05;;
28625;SDS011;18905;42.668;23.364;2022-10-16T06:08:51;16.77;;;10.43;;
28625;SDS011;18905;42.668;23.364;2022-10-16T06:11:21;19.42;;;9.90;;
28625;SDS011;18905;42.668;23.364;2022-10-16T06:13:49;16.60;;;9.82;;
28625;SDS011;18905;42.668;23.364;2022-10-16T06:16:16;19.00;;;9.48;;
28625;SDS011;18905;42.668;23.364;2022-10-16T06:18:41;14.43;;;9.27;;
28625;SDS011;18905;42.668;23.364;2022-10-16T06:21:07;17.60;;;7.93;;
28625;SDS011;18905;42.668;23.364;2022-10-16T06:23:35;15.57;;;6.45;;
28625;SDS011;18905;42.668;23.364;2022-10-16T06:26:04;19.35;;;10.80;;
28625;SDS011;18905;42.668;23.364;2022-10-16T06:28:33;19.63;;;10.15;;
28625;SDS011;18905;42.668;23.364;2022-10-16T06:30:59;17.80;;;10.63;;
28625;SDS011;18905;42.668;23.364;2022-10-16T06:33:25;18.48;;;10.82;;
28625;SDS011;18905;42.668;23.364;2022-10-16T06:35:51;16.50;;;9.55;;
28625;SDS011;18905;42.668;23.364;2022-10-16T06:38:16;13.85;;;9.10;;
28625;SDS011;18905;42.668;23.364;2022-10-16T06:40:41;15.38;;;9.25;;
28625;SDS011;18905;42.668;23.364;2022-10-16T06:43:07;17.42;;;8.65;;
28625;SDS011;18905;42.668;23.364;2022-10-16T06:45:32;17.55;;;9.55;;
28625;SDS011;18905;42.668;23.364;2022-10-16T06:47:57;15.43;;;9.57;;
28625;SDS011;18905;42.668;23.364;2022-10-16T06:50:23;17.55;;;10.07;;
28625;SDS011;18905;42.668;23.364;2022-10-16T06:52:48;15.35;;;9.32;;
28625;SDS011;18905;42.668;23.364;2022-10-16T06:55:14;15.60;;;8.90;;
28625;SDS011;18905;42.668;23.364;2022-10-16T06:57:40;17.05;;;8.90;;
28625;SDS011;18905;42.668;23.364;2022-10-16T07:00:05;19.77;;;8.95;;
28625;SDS011;18905;42.668;23.364;2022-10-16T07:02:31;14.85;;;8.13;;
28625;SDS011;18905;42.668;23.364;2022-10-16T07:04:57;11.70;;;7.82;;
28625;SDS011;18905;42.668;23.364;2022-10-16T07:07:22;14.82;;;8.27;;
28625;SDS011;18905;42.668;23.364;2022-10-16T07:09:49;16.98;;;8.45;;
28625;SDS011;18905;42.668;23.364;2022-10-16T07:12:15;16.80;;;8.13;;
28625;SDS011;18905;42.668;23.364;2022-10-16T07:14:40;17.52;;;7.68;;
28625;SDS011;18905;42.668;23.364;2022-10-16T07:17:06;14.68;;;7.45;;
28625;SDS011;18905;42.668;23.364;2022-10-16T07:19:31;17.20;;;7.60;;
28625;SDS011;18905;42.668;23.364;2022-10-16T07:21:56;14.70;;;7.38;;
28625;SDS011;18905;42.668;23.364;2022-10-16T07:24:22;11.95;;;7.20;;
28625;SDS011;18905;42.668;23.364;2022-10-16T07:26:47;14.80;;;7.32;;
28625;SDS011;18905;42.668;23.364;2022-10-16T07:29:14;12.32;;;7.63;;
28625;SDS011;18905;42.668;23.364;2022-10-16T07:31:41;14.32;;;7.70;;
28625;SDS011;18905;42.668;23.364;2022-10-16T07:34:07;10.63;;;7.28;;
28625;SDS011;18905;42.668;23.364;2022-10-16T07:36:33;11.38;;;6.03;;
28625;SDS011;18905;42.668;23.364;2022-10-16T07:38:59;10.95;;;6.35;;
28625;SDS011;18905;42.668;23.364;2022-10-16T07:41:24;12.00;;;6.47;;
28625;SDS011;18905;42.668;23.364;2022-10-16T07:43:50;8.95;;;6.07;;
28625;SDS011;18905;42.668;23.364;2022-10-16T07:46:17;9.70;;;6.40;;
28625;SDS011;18905;42.668;23.364;2022-10-16T07:48:44;9.88;;;5.72;;
28625;SDS011;18905;42.668;23.364;2022-10-16T07:51:12;8.48;;;5.97;;
28625;SDS011;18905;42.668;23.364;2022-10-16T07:53:40;11.70;;;5.75;;
28625;SDS011;18905;42.668;23.364;2022-10-16T07:56:06;17.25;;;6.60;;
28625;SDS011;18905;42.668;23.364;2022-10-16T07:58:32;11.18;;;6.18;;
28625;SDS011;18905;42.668;23.364;2022-10-16T08:01:05;11.68;;;6.32;;
28625;SDS011;18905;42.668;23.364;2022-10-16T08:03:32;13.35;;;6.60;;
28625;SDS011;18905;42.668;23.364;2022-10-16T08:05:58;10.00;;;6.60;;
28625;SDS011;18905;42.668;23.364;2022-10-16T08:08:24;9.20;;;6.03;;
28625;SDS011;18905;42.668;23.364;2022-10-16T08:10:50;15.07;;;6.93;;
28625;SDS011;18905;42.668;23.364;2022-10-16T08:13:15;12.40;;;6.72;;
28625;SDS011;18905;42.668;23.364;2022-10-16T08:15:41;8.80;;;6.35;;
28625;SDS011;18905;42.668;23.364;2022-10-16T08:18:10;14.63;;;6.45;;
28625;SDS011;18905;42.668;23.364;2022-10-16T08:20:37;10.10;;;6.45;;
28625;SDS011;18905;42.668;23.364;2022-10-16T08:23:03;13.02;;;6.90;;
28625;SDS011;18905;42.668;23.364;2022-10-16T08:25:28;8.10;;;5.68;;
28625;SDS011;18905;42.668;23.364;2022-10-16T08:27:54;13.73;;;6.72;;
28625;SDS011;18905;42.668;23.364;2022-10-16T08:30:20;14.18;;;6.70;;
28625;SDS011;18905;42.668;23.364;2022-10-16T08:32:47;12.85;;;6.65;;
28625;SDS011;18905;42.668;23.364;2022-10-16T08:35:13;12.80;;;6.30;;
28625;SDS011;18905;42.668;23.364;2022-10-16T08:37:40;12.20;;;6.07;;
28625;SDS011;18905;42.668;23.364;2022-10-16T08:40:06;12.48;;;6.00;;
28625;SDS011;18905;42.668;23.364;2022-10-16T08:47:53;13.90;;;6.00;;
28625;SDS011;18905;42.668;23.364;2022-10-16T08:50:22;11.70;;;5.15;;
28625;SDS011;18905;42.668;23.364;2022-10-16T08:52:50;7.78;;;4.85;;
28625;SDS011;18905;42.668;23.364;2022-10-16T08:55:30;6.82;;;4.45;;
28625;SDS011;18905;42.668;23.364;2022-10-16T08:58:15;8.45;;;4.43;;
28625;SDS011;18905;42.668;23.364;2022-10-16T09:00:43;8.05;;;4.78;;
28625;SDS011;18905;42.668;23.364;2022-10-16T09:19:46;8.20;;;4.07;;
28625;SDS011;18905;42.668;23.364;2022-10-16T09:22:21;6.47;;;3.72;;
28625;SDS011;18905;42.668;23.364;2022-10-16T09:24:53;7.53;;;3.70;;
28625;SDS011;18905;42.668;23.364;2022-10-16T09:27:20;6.40;;;3.80;;
28625;SDS011;18905;42.668;23.364;2022-10-16T09:29:45;7.65;;;3.70;;
28625;SDS011;18905;42.668;23.364;2022-10-16T09:32:14;9.68;;;3.65;;
28625;SDS011;18905;42.668;23.364;2022-10-16T09:34:50;8.63;;;4.03;;
28625;SDS011;18905;42.668;23.364;2022-10-16T09:37:19;5.47;;;3.70;;
28625;SDS011;18905;42.668;23.364;2022-10-16T09:39:53;6.20;;;3.83;;
28625;SDS011;18905;42.668;23.364;2022-10-16T09:42:20;9.55;;;4.10;;
28625;SDS011;18905;42.668;23.364;2022-10-16T09:44:57;6.95;;;4.20;;
28625;SDS011;18905;42.668;23.364;2022-10-16T09:47:23;11.27;;;3.78;;
28625;SDS011;18905;42.668;23.364;2022-10-16T09:52:26;6.20;;;3.58;;
28625;SDS011;18905;42.668;23.364;2022-10-16T09:54:54;9.45;;;3.63;;
28625;SDS011;18905;42.668;23.364;2022-10-16T09:57:21;9.43;;;3.90;;
28625;SDS011;18905;42.668;23.364;2022-10-16T09:59:54;7.93;;;4.45;;
28625;SDS011;18905;42.668;23.364;2022-10-16T10:02:30;8.52;;;4.68;;
28625;SDS011;18905;42.668;23.364;2022-10-16T10:04:59;6.60;;;3.80;;
28625;SDS011;18905;42.668;23.364;2022-10-16T10:07:32;5.50;;;4.00;;
28625;SDS011;18905;42.668;23.364;2022-10-16T10:10:04;7.53;;;4.00;;
28625;SDS011;18905;42.668;23.364;2022-10-16T10:12:31;8.55;;;4.80;;
28625;SDS011;18905;42.668;23.364;2022-10-16T10:15:06;4.80;;;3.55;;
28625;SDS011;18905;42.668;23.364;2022-10-16T10:17:45;5.05;;;3.88;;
28625;SDS011;18905;42.668;23.364;2022-10-16T10:22:49;11.25;;;6.35;;
28625;SDS011;18905;42.668;23.364;2022-10-16T10:25:15;6.43;;;3.50;;
28625;SDS011;18905;42.668;23.364;2022-10-16T10:35:48;8.68;;;4.35;;
28625;SDS011;18905;42.668;23.364;2022-10-16T10:43:29;3.80;;;3.03;;
28625;SDS011;18905;42.668;23.364;2022-10-16T11:01:09;5.90;;;3.00;;
28625;SDS011;18905;42.668;23.364;2022-10-16T11:06:06;5.55;;;2.70;;
28625;SDS011;18905;42.668;23.364;2022-10-16T11:08:49;3.60;;;2.47;;
28625;SDS011;18905;42.668;23.364;2022-10-16T11:11:19;3.75;;;2.25;;
28625;SDS011;18905;42.668;23.364;2022-10-16T11:13:55;6.30;;;2.65;;
28625;SDS011;18905;42.668;23.364;2022-10-16T11:16:28;6.95;;;2.78;;
28625;SDS011;18905;42.668;23.364;2022-10-16T11:21:49;4.65;;;3.13;;
28625;SDS011;18905;42.668;23.364;2022-10-16T11:26:55;5.68;;;3.50;;
28625;SDS011;18905;42.668;23.364;2022-10-16T11:29:26;4.65;;;3.00;;
28625;SDS011;18905;42.668;23.364;2022-10-16T11:31:57;5.45;;;3.17;;
28625;SDS011;18905;42.668;23.364;2022-10-16T11:34:37;5.90;;;3.63;;
28625;SDS011;18905;42.668;23.364;2022-10-16T11:37:19;5.20;;;3.88;;
28625;SDS011;18905;42.668;23.364;2022-10-16T11:39:49;8.13;;;3.20;;
28625;SDS011;18905;42.668;23.364;2022-10-16T11:42:19;6.70;;;3.13;;
28625;SDS011;18905;42.668;23.364;2022-10-16T11:47:34;3.40;;;2.75;;
28625;SDS011;18905;42.668;23.364;2022-10-16T11:55:31;7.13;;;3.17;;
28625;SDS011;18905;42.668;23.364;2022-10-16T11:58:03;7.60;;;2.75;;
28625;SDS011;18905;42.668;23.364;2022-10-16T12:01:20;6.28;;;3.53;;
28625;SDS011;18905;42.668;23.364;2022-10-16T12:03:42;5.40;;;3.17;;
28625;SDS011;18905;42.668;23.364;2022-10-16T12:09:03;3.90;;;3.05;;
28625;SDS011;18905;42.668;23.364;2022-10-16T12:16:53;6.35;;;3.20;;
28625;SDS011;18905;42.668;23.364;2022-10-16T12:19:21;6.38;;;2.80;;
28625;SDS011;18905;42.668;23.364;2022-10-16T12:21:48;11.68;;;3.22;;
28625;SDS011;18905;42.668;23.364;2022-10-16T12:24:20;7.63;;;3.10;;
28625;SDS011;18905;42.668;23.364;2022-10-16T12:26:58;5.38;;;3.42;;
28625;SDS011;18905;42.668;23.364;2022-10-16T12:29:37;4.65;;;2.88;;
28625;SDS011;18905;42.668;23.364;2022-10-16T12:32:29;4.85;;;2.72;;
28625;SDS011;18905;42.668;23.364;2022-10-16T12:35:02;7.78;;;3.05;;
28625;SDS011;18905;42.668;23.364;2022-10-16T12:40:11;4.25;;;2.60;;
28625;SDS011;18905;42.668;23.364;2022-10-16T12:42:39;4.82;;;2.85;;
28625;SDS011;18905;42.668;23.364;2022-10-16T12:48:02;7.93;;;3.30;;
28625;SDS011;18905;42.668;23.364;2022-10-16T12:50:36;6.65;;;3.08;;
28625;SDS011;18905;42.668;23.364;2022-10-16T12:53:17;4.07;;;2.72;;
28625;SDS011;18905;42.668;23.364;2022-10-16T12:55:50;6.05;;;2.63;;
28625;SDS011;18905;42.668;23.364;2022-10-16T12:58:33;4.43;;;2.90;;
28625;SDS011;18905;42.668;23.364;2022-10-16T13:01:17;6.93;;;2.70;;
28625;SDS011;18905;42.668;23.364;2022-10-16T13:06:25;5.65;;;2.83;;
28625;SDS011;18905;42.668;23.364;2022-10-16T13:17:56;5.63;;;2.70;;
28625;SDS011;18905;42.668;23.364;2022-10-16T13:20:33;4.32;;;2.90;;
28625;SDS011;18905;42.668;23.364;2022-10-16T13:23:15;8.20;;;2.88;;
28625;SDS011;18905;42.668;23.364;2022-10-16T13:28:34;9.70;;;3.95;;
28625;SDS011;18905;42.668;23.364;2022-10-16T13:31:03;5.45;;;3.22;;
28625;SDS011;18905;42.668;23.364;2022-10-16T13:33:41;5.25;;;3.25;;
28625;SDS011;18905;42.668;23.364;2022-10-16T13:36:18;5.72;;;3.50;;
28625;SDS011;18905;42.668;23.364;2022-10-16T13:39:27;5.43;;;3.20;;
28625;SDS011;18905;42.668;23.364;2022-10-16T13:44:28;7.53;;;3.58;;
28625;SDS011;18905;42.668;23.364;2022-10-16T13:47:00;6.85;;;3.10;;
28625;SDS011;18905;42.668;23.364;2022-10-16T13:49:26;5.15;;;3.25;;
28625;SDS011;18905;42.668;23.364;2022-10-16T13:51:58;13.80;;;4.07;;
28625;SDS011;18905;42.668;23.364;2022-10-16T13:54:25;6.95;;;3.17;;
28625;SDS011;18905;42.668;23.364;2022-10-16T13:56:53;6.05;;;3.17;;
28625;SDS011;18905;42.668;23.364;2022-10-16T13:59:26;8.00;;;2.88;;
28625;SDS011;18905;42.668;23.364;2022-10-16T14:01:57;9.20;;;3.05;;
28625;SDS011;18905;42.668;23.364;2022-10-16T14:04:31;4.95;;;3.10;;
28625;SDS011;18905;42.668;23.364;2022-10-16T14:06:58;7.72;;;3.40;;
28625;SDS011;18905;42.668;23.364;2022-10-16T14:09:27;9.60;;;3.13;;
28625;SDS011;18905;42.668;23.364;2022-10-16T14:11:55;7.82;;;4.05;;
28625;SDS011;18905;42.668;23.364;2022-10-16T14:14:25;11.48;;;5.03;;
28625;SDS011;18905;42.668;23.364;2022-10-16T14:16:55;11.80;;;5.60;;
28625;SDS011;18905;42.668;23.364;2022-10-16T14:19:22;16.25;;;10.00;;
28625;SDS011;18905;42.668;23.364;2022-10-16T14:21:50;11.25;;;7.70;;
28625;SDS011;18905;42.668;23.364;2022-10-16T14:24:32;9.82;;;6.15;;
28625;SDS011;18905;42.668;23.364;2022-10-16T14:26:59;8.93;;;3.55;;
28625;SDS011;18905;42.668;23.364;2022-10-16T14:29:26;11.35;;;5.35;;
28625;SDS011;18905;42.668;23.364;2022-10-16T14:34:33;12.60;;;7.32;;
28625;SDS011;18905;42.668;23.364;2022-10-16T14:37:06;10.93;;;5.97;;
28625;SDS011;18905;42.668;23.364;2022-10-16T14:39:48;11.95;;;6.13;;
28625;SDS011;18905;42.668;23.364;2022-10-16T14:42:16;8.77;;;4.72;;
28625;SDS011;18905;42.668;23.364;2022-10-16T14:44:44;6.78;;;2.97;;
28625;SDS011;18905;42.668;23.364;2022-10-16T14:47:12;12.05;;;5.03;;
28625;SDS011;18905;42.668;23.364;2022-10-16T14:49:41;9.07;;;3.75;;
28625;SDS011;18905;42.668;23.364;2022-10-16T14:52:12;10.82;;;4.45;;
28625;SDS011;18905;42.668;23.364;2022-10-16T14:54:38;10.90;;;4.10;;
28625;SDS011;18905;42.668;23.364;2022-10-16T14:57:05;5.20;;;3.30;;
28625;SDS011;18905;42.668;23.364;2022-10-16T14:59:39;9.35;;;3.25;;
28625;SDS011;18905;42.668;23.364;2022-10-16T15:02:30;4.65;;;3.20;;
28625;SDS011;18905;42.668;23.364;2022-10-16T15:04:56;9.68;;;3.47;;
28625;SDS011;18905;42.668;23.364;2022-10-16T15:07:22;16.77;;;4.13;;
28625;SDS011;18905;42.668;23.364;2022-10-16T15:09:48;8.50;;;3.70;;
28625;SDS011;18905;42.668;23.364;2022-10-16T15:12:13;8.35;;;3.45;;
28625;SDS011;18905;42.668;23.364;2022-10-16T15:14:39;8.23;;;4.47;;
28625;SDS011;18905;42.668;23.364;2022-10-16T15:17:04;14.27;;;4.10;;
28625;SDS011;18905;42.668;23.364;2022-10-16T15:19:30;9.32;;;4.68;;
28625;SDS011;18905;42.668;23.364;2022-10-16T15:21:55;10.80;;;5.10;;
28625;SDS011;18905;42.668;23.364;2022-10-16T15:24:21;7.85;;;4.20;;
28625;SDS011;18905;42.668;23.364;2022-10-16T15:26:47;12.93;;;4.72;;
28625;SDS011;18905;42.668;23.364;2022-10-16T15:29:14;14.07;;;5.97;;
28625;SDS011;18905;42.668;23.364;2022-10-16T15:31:40;11.60;;;5.10;;
28625;SDS011;18905;42.668;23.364;2022-10-16T15:34:08;14.32;;;5.05;;
28625;SDS011;18905;42.668;23.364;2022-10-16T15:36:35;10.75;;;5.45;;
28625;SDS011;18905;42.668;23.364;2022-10-16T15:39:06;10.35;;;5.45;;
28625;SDS011;18905;42.668;23.364;2022-10-16T15:41:38;11.50;;;5.03;;
28625;SDS011;18905;42.668;23.364;2022-10-16T15:44:03;19.80;;;6.05;;
28625;SDS011;18905;42.668;23.364;2022-10-16T15:46:29;8.90;;;4.45;;
28625;SDS011;18905;42.668;23.364;2022-10-16T15:48:56;10.93;;;4.57;;
28625;SDS011;18905;42.668;23.364;2022-10-16T15:51:23;10.23;;;4.80;;
28625;SDS011;18905;42.668;23.364;2022-10-16T15:53:49;15.07;;;4.78;;
28625;SDS011;18905;42.668;23.364;2022-10-16T15:56:16;10.38;;;4.68;;
28625;SDS011;18905;42.668;23.364;2022-10-16T15:58:42;8.82;;;4.63;;
28625;SDS011;18905;42.668;23.364;2022-10-16T16:01:08;14.38;;;5.20;;
28625;SDS011;18905;42.668;23.364;2022-10-16T16:03:35;9.05;;;4.72;;
28625;SDS011;18905;42.668;23.364;2022-10-16T16:06:05;10.85;;;5.22;;
28625;SDS011;18905;42.668;23.364;2022-10-16T16:08:35;14.13;;;5.40;;
28625;SDS011;18905;42.668;23.364;2022-10-16T16:11:03;11.00;;;5.32;;
28625;SDS011;18905;42.668;23.364;2022-10-16T16:13:30;12.65;;;5.28;;
28625;SDS011;18905;42.668;23.364;2022-10-16T16:15:56;9.10;;;5.57;;
28625;SDS011;18905;42.668;23.364;2022-10-16T16:18:21;10.73;;;5.40;;
28625;SDS011;18905;42.668;23.364;2022-10-16T16:20:48;11.13;;;5.63;;
28625;SDS011;18905;42.668;23.364;2022-10-16T16:23:14;14.10;;;5.55;;
28625;SDS011;18905;42.668;23.364;2022-10-16T16:25:40;9.60;;;5.15;;
28625;SDS011;18905;42.668;23.364;2022-10-16T16:28:05;16.58;;;6.38;;
28625;SDS011;18905;42.668;23.364;2022-10-16T16:30:32;13.38;;;6.82;;
28625;SDS011;18905;42.668;23.364;2022-10-16T16:32:57;10.93;;;6.30;;
28625;SDS011;18905;42.668;23.364;2022-10-16T16:35:23;20.02;;;8.05;;